This is the latest recevied weather packets stored in our database for station/object KG5VSR. If no packets are shown the sender has not sent any weather packets the latest 10 day(s).
| Time | Temp. | Humidity | Pressure | Rain* | Wind** | Luminosity | Snow |
|---|---|---|---|---|---|---|---|
| 1788161856 | 85° F | 61% | 761.3 mmHg | 0 in | - | 0 W/m² | - |
| 1788160052 | 82° F | 65% | 761.2 mmHg | 0 in | - | 0 W/m² | - |
| 1788158247 | 84° F | 62% | 761.2 mmHg | 0 in | - | 0 W/m² | - |
| 1788156444 | 85° F | 61% | 761.2 mmHg | 0 in | - | 0 W/m² | - |
| 1788154645 | 84° F | 61% | 761.2 mmHg | 0 in | - | 0 W/m² | - |
| 1788152840 | 85° F | 59% | 761.2 mmHg | 0 in | - | 0 W/m² | - |
| 1788151038 | 87° F | 55% | 761.2 mmHg | 0 in | - | 0 W/m² | - |
| 1788149235 | 89° F | 53% | 761.1 mmHg | 0 in | - | 0 W/m² | - |
| 1788147434 | 89° F | 52% | 760.9 mmHg | 0 in | - | 0 W/m² | - |
| 1788145630 | 89° F | 52% | 760.7 mmHg | 0 in | - | 0 W/m² | - |
| 1788143827 | 90° F | 50% | 760.5 mmHg | 0 in | - | 0 W/m² | - |
| 1788142025 | 91° F | 49% | 760.3 mmHg | 0 in | - | 0 W/m² | - |
| 1788140224 | 92° F | 46% | 760 mmHg | 0 in | - | 0 W/m² | - |
| 1788138422 | 94° F | 44% | 759.7 mmHg | 0 in | - | 0 W/m² | - |
| 1788136622 | 95° F | 43% | 759.8 mmHg | 0 in | - | 10 W/m² | - |
| 1788134823 | 97° F | 43% | 759.9 mmHg | 0 in | - | 27 W/m² | - |
| 1788133021 | 98° F | 41% | 759.9 mmHg | 0 in | - | 42 W/m² | - |
| 1788131222 | 99° F | 40% | 760 mmHg | 0 in | - | 167 W/m² | - |
| 1788129421 | 98° F | 39% | 760 mmHg | 0 in | - | 70 W/m² | - |
| 1788127617 | 102° F | 36% | 760.1 mmHg | 0 in | - | 447 W/m² | - |
| 1788125815 | 100° F | 36% | 760.2 mmHg | 0 in | - | 465 W/m² | - |
| 1788124015 | 100° F | 38% | 760.4 mmHg | 0 in | - | 154 W/m² | - |
| 1788122213 | 102° F | 37% | 760.6 mmHg | 0 in | - | 707 W/m² | - |
| 1788120411 | 102° F | 39% | 760.9 mmHg | 0 in | - | 727 W/m² | - |
| 1788118610 | 100° F | 40% | 761.3 mmHg | 0 in | - | 167 W/m² | - |
* Rain latest hour (hover to see other rain measurements)
** Current wind speed in m/s (hover to see current wind gust speed)